1962 NOT_NAMED (1962037S19114)


IBTrACS version v04r00. Visit IBTrACS website for data access.
Please direct all questions to the IBTrACS Q and A forum

Storm track - Intensity - Wind Radii - Intensity Data - Source Data - All data

Summary Information

Storm ID 1962037S19114
Start Feb 6 03Z
End Feb 10 11Z
ATCF IDs
Track status Best track data.
Spur track This storm is a spur track associated with the main storm: 1962028S13130

Storm track plot

Map of storm track

Intensity plots

No Intensity information for this storm


Radial wind information

No radial wind information for this storm


Position and Intensity Table

BASIN ISO_TIME_________ NATURE LAT LON
degrees north degrees east
SI 1962-02-06 03:00:00 NR -19.24 113.84
SI 06:00:00 NR -19.27 113.61
SI 09:00:00 NR -19.29 113.37
SI 11:00:00 NR -19.30 113.20
SI 12:00:00 NR -19.30 113.12
SI 15:00:00 NR -19.30 112.87
SI 18:00:00 NR -19.28 112.62
SI 21:00:00 NR -19.24 112.36
SI 23:00:00 NR -19.20 112.20
SI 1962-02-07 00:00:00 NR -19.18 112.12
SI 01:00:00 NR -19.15 112.04
SI 03:00:00 NR -19.10 111.88
SI 06:00:00 NR -18.99 111.65
SI 08:00:00 NR -18.92 111.51
SI 09:00:00 NR -18.88 111.44
SI 11:00:00 NR -18.80 111.30
SI 12:00:00 NR -18.76 111.24
SI 15:00:00 NR -18.64 111.08
SI 18:00:00 NR -18.51 110.93
SI 21:00:00 NR -18.39 110.75
SI 23:00:00 NR -18.30 110.60
SI 1962-02-08 00:00:00 NR -18.25 110.52
SI 01:00:00 NR -18.20 110.43
SI 03:00:00 NR -18.11 110.23
SI 06:00:00 NR -17.97 109.90
SI 09:00:00 NR -17.85 109.55
SI 11:00:00 NR -17.80 109.30
SI 12:00:00 NR -17.78 109.18
SI 15:00:00 NR -17.74 108.80
SI 18:00:00 NR -17.74 108.40
SI 21:00:00 NR -17.77 107.99
SI 23:00:00 NR -17.80 107.70
SI 1962-02-09 00:00:00 NR -17.81 107.56
SI 01:00:00 NR -17.82 107.41
SI 03:00:00 NR -17.84 107.12
SI 06:00:00 NR -17.91 106.66
SI 09:00:00 NR -18.01 106.20
SI 11:00:00 NR -18.10 105.90
SI 12:00:00 NR -18.15 105.75
SI 15:00:00 NR -18.34 105.28
SI 18:00:00 NR -18.56 104.82
SI 21:00:00 NR -18.82 104.38
SI 23:00:00 NR -19.00 104.10
SI 1962-02-10 00:00:00 NR -19.07 103.96
SI 01:00:00 NR -19.14 103.82
SI 03:00:00 NR -19.29 103.55
SI 06:00:00 NR -19.56 103.18
SI 09:00:00 NR -19.91 102.87
SI 11:00:00 NR -20.20 102.70

Source Information

Agency Information
USA
TOKYO
CMA
HKO
NEWDELHI
REUNION
BOM
NADI
WELLINGTON
DS824
TD9636 cons_worldwide_trop_cyclone_18710101-19891231-006:Line=6106
TD9635
NEUMANN
MLC

All available IBTrACS Data

SEASON BASIN SUBBASIN ISO_TIME_________ NATURE LAT LON DIST2LAND LANDFALL IFLAG USA SSHS TD9636 LAT TD9636 LON TD9636 STAGE STORM SPEED STORM DIR
Year degrees north degrees east km km 1 degrees north degrees east kts degrees
1962 SI WA 1962-02-06 03:00:00 NR -19.24 113.84 302 292 ______________ -1 4 262
1962 SI WA 06:00:00 NR -19.27 113.61 293 293 ______________ -1 4 263
1962 SI WA 09:00:00 NR -19.29 113.37 297 297 ______________ -1 5 265
1962 SI WA 11:00:00 NR -19.30 113.20 302 302 __________O___ -1 -19.30 113.20 1 5 268
1962 SI WA 12:00:00 NR -19.30 113.12 305 305 __________P___ -1 -19.30 113.12 1 5 270
1962 SI WA 15:00:00 NR -19.30 112.87 312 312 __________P___ -1 -19.29 112.86 1 5 273
1962 SI WA 18:00:00 NR -19.28 112.62 325 325 __________P___ -1 -19.27 112.61 1 5 277
1962 SI WA 21:00:00 NR -19.24 112.36 344 344 __________P___ -1 -19.24 112.36 1 5 281
1962 SI WA 23:00:00 NR -19.20 112.20 355 355 __________O___ -1 -19.20 112.20 2 5 285
1962 SI WA 1962-02-07 00:00:00 NR -19.18 112.12 360 360 __________P___ -1 -19.18 112.12 2 5 287
1962 SI WA 01:00:00 NR -19.15 112.04 366 366 __________P___ -1 -19.15 112.04 2 5 290
1962 SI WA 03:00:00 NR -19.10 111.88 381 381 __________P___ -1 -19.10 111.88 2 5 294
1962 SI WA 06:00:00 NR -18.99 111.65 403 403 __________P___ -1 -18.99 111.65 2 5 296
1962 SI WA 08:00:00 NR -18.92 111.51 424 424 __________P___ -1 -18.92 111.51 2 5 299
1962 SI WA 09:00:00 NR -18.88 111.44 431 431 __________P___ -1 -18.88 111.44 2 5 302
1962 SI WA 11:00:00 NR -18.80 111.30 446 446 __________O___ -1 -18.80 111.30 1 4 303
1962 SI WA 12:00:00 NR -18.76 111.24 453 453 __________P___ -1 -18.76 111.24 1 4 308
1962 SI WA 15:00:00 NR -18.64 111.08 477 477 __________P___ -1 -18.64 111.08 1 4 310
1962 SI WA 18:00:00 NR -18.51 110.93 499 499 __________P___ -1 -18.51 110.93 1 4 308
1962 SI WA 21:00:00 NR -18.39 110.75 521 521 __________P___ -1 -18.39 110.75 1 5 305
1962 SI WA 23:00:00 NR -18.30 110.60 536 536 __________O___ -1 -18.30 110.60 7 5 301
1962 SI WA 1962-02-08 00:00:00 NR -18.25 110.52 543 543 __________P___ -1 -18.25 110.52 7 6 300
1962 SI WA 01:00:00 NR -18.20 110.43 559 559 __________P___ -1 -18.20 110.43 7 6 298
1962 SI WA 03:00:00 NR -18.11 110.23 581 581 __________P___ -1 -18.11 110.23 7 7 295
1962 SI WA 06:00:00 NR -17.97 109.90 611 611 __________P___ -1 -17.97 109.90 7 7 291
1962 SI WA 09:00:00 NR -17.85 109.55 649 649 __________P___ -1 -17.85 109.55 7 7 286
1962 SI WA 11:00:00 NR -17.80 109.30 672 672 __________O___ -1 -17.80 109.30 1 7 282
1962 SI WA 12:00:00 NR -17.78 109.18 679 679 __________P___ -1 -17.78 109.18 1 7 277
1962 SI WA 15:00:00 NR -17.74 108.80 718 718 __________P___ -1 -17.74 108.80 1 7 273
1962 SI WA 18:00:00 NR -17.74 108.40 750 750 __________P___ -1 -17.74 108.40 1 8 268
1962 SI WA 21:00:00 NR -17.77 107.99 777 777 __________P___ -1 -17.77 107.99 1 8 265
1962 SI WA 23:00:00 NR -17.80 107.70 802 802 __________O___ -1 -17.80 107.70 1 8 265
1962 SI WA 1962-02-09 00:00:00 NR -17.81 107.56 811 811 __________P___ -1 -17.81 107.56 1 8 266
1962 SI WA 01:00:00 NR -17.82 107.41 828 828 __________P___ -1 -17.82 107.41 1 8 265
1962 SI WA 03:00:00 NR -17.84 107.12 854 854 __________P___ -1 -17.84 107.12 1 9 263
1962 SI WA 06:00:00 NR -17.91 106.66 884 884 __________P___ -1 -17.91 106.66 1 9 259
1962 SI WA 09:00:00 NR -18.01 106.20 924 924 __________P___ -1 -18.01 106.20 1 9 255
1962 SI WA 11:00:00 NR -18.10 105.90 946 946 __________O___ -1 -18.10 105.90 1 9 252
1962 SI WA 12:00:00 NR -18.15 105.75 958 958 __________P___ -1 -18.15 105.75 1 10 248
1962 SI WA 15:00:00 NR -18.34 105.28 989 989 __________P___ -1 -18.34 105.28 1 10 245
1962 SI WA 18:00:00 NR -18.56 104.82 1018 1018 __________P___ -1 -18.56 104.82 1 10 241
1962 SI WA 21:00:00 NR -18.82 104.38 1046 1046 __________P___ -1 -18.82 104.38 1 10 237
1962 SI WA 23:00:00 NR -19.00 104.10 1065 1065 __________O___ -1 -19.00 104.10 2 9 237
1962 SI WA 1962-02-10 00:00:00 NR -19.07 103.96 1071 1071 __________P___ -1 -19.09 103.97 2 9 242
1962 SI WA 01:00:00 NR -19.14 103.82 1090 1086 __________P___ -1 -19.19 103.84 2 9 240
1962 SI WA 03:00:00 NR -19.29 103.55 1101 1101 __________P___ -1 -19.39 103.59 2 9 235
1962 SI WA 06:00:00 NR -19.56 103.18 1129 1129 __________P___ -1 -19.69 103.25 2 9 226
1962 SI WA 09:00:00 NR -19.91 102.87 1148 1148 __________P___ -1 -19.99 102.92 2 9 216
1962 SI WA 11:00:00 NR -20.20 102.70 1159 __________O___ -1 -20.20 102.70 1 10 208